Main page
METAR-TAF:

METAR-TAF

Airports :

Ibadan, Nigeria

Ibadan Airport

latitude: 07-26N, longitude: 003-54E, elevation: 234 m

METAR: missing

Time: 16:10 (15:10 UTC)

Forecast

The report was made 5 hours and 20 minutes ago, at 09:50 UTC
Forecast valid from 19 at 12 UTC to 20 at 18 UTC
Wind 10 kt from the West
Visibility: 8000 m
Broken clouds at a height of 1300 ft
Probability 30% :
Temporary
from 19 at 12 UTC to 19 at 16 UTC
Broken clouds at a height of 1000 ft
Few clouds at a height of 2000 ft, Cumulonimbus.
light rain
Becoming
from 19 at 17 UTC to 19 at 19 UTC
Scattered clouds at a height of 1000 ft

TAF: DNIB 190950Z 1912/2018 27010KT 8000 BKN013 PROB30 TEMPO 1912/1916 -RA BKN010 FEW020CB BECMG 1917/1919 SCT010

Weather observations and forecasts of more than 4000 airports (METAR and TAF reports).

The available stations are represented by yellow and red dots on the map.

Hover mouse over dot to see the name of the station.

Then click to see weather observations and forecasts.

To change the map : click on the green buttons with a black cross to zoom in, on the green button with a dash to zoom out, or on the green arrows for adjacent maps.


METAR-TAF: